Time;durP1;ratioP1;P1;durP2;ratioP2;P2;SDS_P1;SDS_P2;PMS_P1;PMS_P2;Temp;Humidity;BMP_temperature;BMP_pressure;BME280_temperature;BME280_humidity;BME280_pressure;Samples;Min_cycle;Max_cycle;Signal;HPM_P1;HPM_P2
2023/07/17 00:00:15;;;;;;;46.47;41.72;;;18.90;99.90;;;;;;5110149;28;20474;-68
2023/07/17 00:02:42;;;;;;;45.53;40.72;;;18.90;99.90;;;;;;5110001;28;20077;-67
2023/07/17 00:05:09;;;;;;;44.03;39.85;;;18.90;99.90;;;;;;5110507;28;20167;-67
2023/07/17 00:07:35;;;;;;;46.28;41.30;;;18.90;99.90;;;;;;5092059;28;20040;-67
2023/07/17 00:10:04;;;;;;;44.83;39.90;;;18.80;99.90;;;;;;5110197;28;20042;-67
2023/07/17 00:12:30;;;;;;;47.10;40.72;;;18.90;99.90;;;;;;5109736;28;20052;-67
2023/07/17 00:14:56;;;;;;;48.10;42.05;;;18.90;99.90;;;;;;5110171;28;20051;-67
2023/07/17 00:17:22;;;;;;;44.45;40.03;;;18.90;99.90;;;;;;5109996;28;20136;-67
2023/07/17 00:19:55;;;;;;;55.35;42.42;;;18.90;99.90;;;;;;5109962;28;20047;-66
2023/07/17 00:22:22;;;;;;;45.20;40.50;;;18.90;99.90;;;;;;5091455;28;20039;-67
2023/07/17 00:24:48;;;;;;;45.22;40.78;;;18.90;99.90;;;;;;5109939;28;20031;-67
2023/07/17 00:27:13;;;;;;;47.35;42.45;;;18.90;99.90;;;;;;5092044;28;20086;-68
2023/07/17 00:29:40;;;;;;;47.72;40.67;;;18.90;99.90;;;;;;5110128;28;20071;-67
2023/07/17 00:32:06;;;;;;;47.35;42.20;;;18.90;99.90;;;;;;5110016;28;20505;-67
2023/07/17 00:34:32;;;;;;;47.45;42.13;;;18.90;99.90;;;;;;5109861;28;20055;-68
2023/07/17 00:36:58;;;;;;;47.60;42.42;;;18.80;99.90;;;;;;5109615;28;20046;-69
2023/07/17 00:39:24;;;;;;;47.53;41.55;;;18.80;99.90;;;;;;5110084;28;20043;-67
2023/07/17 00:41:50;;;;;;;46.17;41.38;;;18.80;1.00;;;;;;5109507;28;20397;-68
2023/07/17 00:44:16;;;;;;;45.72;41.00;;;18.70;1.00;;;;;;5091523;28;20520;-67
2023/07/17 00:46:43;;;;;;;51.88;42.85;;;18.80;1.00;;;;;;5111300;28;20036;-67
2023/07/17 00:49:10;;;;;;;47.53;42.33;;;18.70;1.00;;;;;;5095774;28;20047;-67
2023/07/17 00:51:39;;;;;;;46.45;41.20;;;18.70;1.00;;;;;;5109712;28;20040;-67
2023/07/17 00:54:06;;;;;;;53.05;41.85;;;18.70;1.00;;;;;;5113756;28;20039;-67
2023/07/17 00:56:32;;;;;;;48.05;42.78;;;18.70;1.00;;;;;;5113239;28;20618;-67
2023/07/17 00:58:58;;;;;;;49.35;41.45;;;18.70;1.00;;;;;;5109490;28;20031;-67
2023/07/17 01:01:26;;;;;;;50.05;41.22;;;18.60;1.00;;;;;;5113979;28;20055;-67
2023/07/17 01:03:56;;;;;;;49.72;41.00;;;18.60;1.00;;;;;;5113914;28;20077;-67
2023/07/17 01:06:23;;;;;;;52.20;42.95;;;18.60;1.00;;;;;;5113344;28;20471;-67
2023/07/17 01:08:48;;;;;;;49.67;41.25;;;18.60;1.00;;;;;;5095255;28;20126;-67
2023/07/17 01:11:14;;;;;;;47.45;41.38;;;18.60;1.00;;;;;;5113459;28;20118;-68
2023/07/17 01:13:44;;;;;;;43.72;39.08;;;18.50;1.00;;;;;;5113054;28;20043;-67
2023/07/17 01:16:10;;;;;;;45.17;39.63;;;18.50;25.30;;;;;;5113291;28;20097;-68
2023/07/17 01:18:36;;;;;;;48.05;40.67;;;18.50;66.10;;;;;;5113423;28;20036;-66
2023/07/17 01:21:03;;;;;;;53.88;40.65;;;18.60;97.00;;;;;;5113165;28;20037;-68
2023/07/17 01:23:29;;;;;;;47.33;39.22;;;18.50;99.90;;;;;;5113753;28;20071;-68
2023/07/17 01:25:54;;;;;;;53.00;40.08;;;18.50;99.90;;;;;;5112450;28;20071;-67
2023/07/17 01:28:20;;;;;;;45.55;38.30;;;18.50;99.90;;;;;;5113089;28;20039;-67
2023/07/17 01:30:45;;;;;;;48.17;39.15;;;18.50;99.90;;;;;;5113111;28;20131;-68
2023/07/17 01:33:11;;;;;;;52.53;39.53;;;18.50;99.90;;;;;;5112895;28;20386;-67
2023/07/17 01:35:36;;;;;;;51.38;40.00;;;18.90;99.90;;;;;;5110062;28;20457;-67
2023/07/17 01:38:02;;;;;;;53.88;38.55;;;18.50;99.90;;;;;;5112634;28;20036;-68
2023/07/17 01:40:28;;;;;;;51.70;38.75;;;18.60;99.90;;;;;;5112436;28;20046;-68
2023/07/17 01:42:53;;;;;;;50.72;37.92;;;18.90;99.90;;;;;;5113228;28;20075;-68
2023/07/17 01:45:19;;;;;;;44.85;37.75;;;18.60;99.90;;;;;;5113112;28;20104;-67
2023/07/17 01:47:44;;;;;;;48.88;38.90;;;18.50;99.90;;;;;;5112777;28;20138;-67
2023/07/17 01:50:10;;;;;;;48.05;38.03;;;18.50;1.00;;;;;;5108793;28;20119;-68
2023/07/17 01:52:35;;;;;;;49.95;38.38;;;18.60;1.00;;;;;;5094416;28;20043;-67
2023/07/17 01:55:01;;;;;;;50.22;37.88;;;18.50;1.00;;;;;;5110784;28;20096;-68
2023/07/17 01:57:26;;;;;;;53.05;38.10;;;18.60;1.00;;;;;;5093763;28;20085;-68
2023/07/17 01:59:52;;;;;;;44.92;36.65;;;18.60;1.00;;;;;;5112361;28;20414;-67
2023/07/17 02:02:18;;;;;;;43.63;36.30;;;18.60;1.00;;;;;;5112381;28;20040;-67
2023/07/17 02:04:43;;;;;;;53.95;36.05;;;18.60;22.30;;;;;;5094072;28;20046;-67
2023/07/17 02:07:09;;;;;;;46.90;37.25;;;18.50;49.80;;;;;;5112136;28;20044;-67
2023/07/17 02:09:34;;;;;;;51.80;37.63;;;19.60;85.10;;;;;;5112332;28;20043;-67
2023/07/17 02:12:00;;;;;;;51.70;37.72;;;18.60;99.90;;;;;;5111779;28;20222;-67
2023/07/17 02:14:25;;;;;;;49.78;38.33;;;18.60;99.90;;;;;;5112118;28;20084;-67
2023/07/17 02:16:51;;;;;;;49.00;37.17;;;18.60;99.90;;;;;;5106180;28;20028;-67
2023/07/17 02:19:18;;;;;;;45.60;36.42;;;18.60;99.90;;;;;;5111980;28;20408;-67
2023/07/17 02:21:44;;;;;;;52.67;37.70;;;18.60;99.90;;;;;;5110883;28;20558;-67
2023/07/17 02:24:10;;;;;;;50.05;37.08;;;18.60;99.90;;;;;;5111729;28;20039;-68
2023/07/17 02:26:35;;;;;;;49.08;37.30;;;18.60;99.90;;;;;;5111531;28;20263;-67
2023/07/17 02:29:01;;;;;;;47.17;37.15;;;18.50;99.90;;;;;;5112069;28;20115;-67
2023/07/17 02:31:26;;;;;;;50.63;37.53;;;18.40;99.90;;;;;;5102070;28;20036;-67
2023/07/17 02:33:52;;;;;;;53.20;37.08;;;18.40;99.90;;;;;;5111910;28;20468;-68
2023/07/17 02:36:18;;;;;;;54.60;38.83;;;18.80;99.90;;;;;;5111519;28;20104;-67
2023/07/17 02:38:43;;;;;;;48.33;37.38;;;18.30;1.00;;;;;;5111650;28;20487;-67
2023/07/17 02:41:09;;;;;;;49.75;37.70;;;18.30;1.00;;;;;;5111225;28;20035;-68
2023/07/17 02:43:35;;;;;;;51.47;37.83;;;18.20;1.00;;;;;;5111398;28;20513;-67
2023/07/17 02:46:00;;;;;;;50.85;38.28;;;18.20;1.00;;;;;;5111697;28;20074;-67
2023/07/17 02:48:26;;;;;;;55.30;39.13;;;18.20;26.40;;;;;;5091284;28;20048;-67
2023/07/17 02:50:52;;;;;;;50.05;38.03;;;18.30;99.90;;;;;;5096871;28;20046;-67
2023/07/17 02:53:17;;;;;;;50.78;37.90;;;18.30;99.90;;;;;;5111235;28;20035;-67
2023/07/17 02:55:43;;;;;;;49.50;37.88;;;18.20;99.90;;;;;;5105808;28;20097;-67
2023/07/17 02:58:08;;;;;;;49.55;37.17;;;18.50;99.90;;;;;;5099114;28;20253;-66
2023/07/17 03:00:34;;;;;;;53.20;37.30;;;18.20;99.90;;;;;;5111219;28;20106;-67
2023/07/17 03:03:04;;;;;;;44.53;37.75;;;18.20;99.90;;;;;;5093555;28;20066;-67
2023/07/17 03:05:30;;;;;;;45.70;36.55;;;18.30;99.90;;;;;;5111124;28;20047;-67
2023/07/17 03:07:55;;;;;;;47.90;37.03;;;18.30;1.00;;;;;;5111161;28;20039;-67
2023/07/17 03:10:21;;;;;;;46.63;36.92;;;18.40;1.00;;;;;;5110580;28;20070;-67
2023/07/17 03:12:47;;;;;;;47.47;36.65;;;18.50;1.00;;;;;;5110344;28;20061;-67
2023/07/17 03:15:12;;;;;;;52.55;37.47;;;18.40;1.00;;;;;;5111134;28;20176;-67
2023/07/17 03:17:38;;;;;;;54.90;38.05;;;18.50;1.00;;;;;;5111013;28;20549;-67
2023/07/17 03:20:06;;;;;;;44.53;35.92;;;18.50;1.00;;;;;;5110889;28;20038;-68
2023/07/17 03:22:31;;;;;;;47.78;36.28;;;18.40;21.00;;;;;;5110374;28;20039;-67
2023/07/17 03:24:57;;;;;;;48.25;35.80;;;18.50;8.40;;;;;;5110894;28;20535;-68
2023/07/17 03:27:23;;;;;;;41.60;35.92;;;18.50;1.00;;;;;;5110845;28;20039;-67
2023/07/17 03:29:48;;;;;;;45.63;36.22;;;18.40;1.00;;;;;;5110804;28;20035;-67
2023/07/17 03:32:14;;;;;;;45.70;34.65;;;18.50;1.00;;;;;;5110716;28;20402;-67
2023/07/17 03:34:39;;;;;;;38.40;33.85;;;18.60;1.00;;;;;;5110526;28;20053;-68
2023/07/17 03:37:05;;;;;;;47.92;36.90;;;18.50;99.90;;;;;;5108750;28;20044;-67
2023/07/17 03:39:30;;;;;;;47.20;36.15;;;18.50;99.90;;;;;;5109594;28;20517;-67
2023/07/17 03:41:56;;;;;;;45.83;36.63;;;18.50;99.90;;;;;;5109844;28;20030;-68
2023/07/17 03:44:22;;;;;;;53.67;36.40;;;18.40;99.90;;;;;;5109749;28;20485;-67
2023/07/17 03:46:47;;;;;;;50.45;36.90;;;18.50;99.90;;;;;;5109606;28;20078;-67
2023/07/17 03:49:13;;;;;;;46.38;37.85;;;18.50;99.90;;;;;;5110228;28;20036;-67
2023/07/17 03:51:38;;;;;;;49.00;37.08;;;18.60;99.90;;;;;;5106173;28;20118;-67
2023/07/17 03:54:04;;;;;;;48.83;37.08;;;18.50;99.90;;;;;;5110419;28;20035;-67
2023/07/17 03:56:29;;;;;;;47.75;36.83;;;18.60;99.90;;;;;;5107592;28;20106;-67
2023/07/17 03:58:55;;;;;;;56.75;37.70;;;19.80;99.90;;;;;;5100695;28;20093;-67
2023/07/17 04:01:21;;;;;;;47.38;35.85;;;18.60;99.90;;;;;;5102807;28;20067;-67
2023/07/17 04:03:46;;;;;;;46.75;35.60;;;18.50;99.90;;;;;;5110085;28;20493;-67
2023/07/17 04:06:12;;;;;;;46.55;35.97;;;18.50;99.90;;;;;;5110306;28;20084;-68
2023/07/17 04:08:37;;;;;;;46.25;38.28;;;18.50;99.90;;;;;;5110426;28;20040;-67
2023/07/17 04:11:04;;;;;;;51.67;39.70;;;18.40;1.00;;;;;;5091745;28;20035;-67
2023/07/17 04:13:29;;;;;;;56.53;41.05;;;18.20;50.90;;;;;;5109844;28;20051;-67
2023/07/17 04:15:55;;;;;;;54.03;42.50;;;18.20;99.90;;;;;;5110275;28;20039;-66
2023/07/17 04:18:20;;;;;;;56.55;43.30;;;18.10;84.00;;;;;;5110356;28;20040;-67
2023/07/17 04:20:46;;;;;;;60.70;45.55;;;18.10;99.90;;;;;;5109300;28;20035;-67
2023/07/17 04:23:12;;;;;;;55.20;43.92;;;18.00;1.00;;;;;;5114181;28;20043;-67
2023/07/17 04:25:41;;;;;;;53.50;43.60;;;17.90;99.90;;;;;;5113986;28;20042;-67
2023/07/17 04:28:07;;;;;;;57.13;42.58;;;17.90;99.90;;;;;;5114417;28;20031;-67
2023/07/17 04:30:36;;;;;;;58.78;43.33;;;18.00;99.90;;;;;;5114461;28;20035;-67
2023/07/17 04:33:01;;;;;;;52.17;42.70;;;18.20;1.00;;;;;;5114003;28;20039;-66
2023/07/17 04:35:27;;;;;;;50.05;42.00;;;18.10;20.00;;;;;;5113496;28;20040;-67
2023/07/17 04:37:55;;;;;;;46.13;39.75;;;18.00;99.90;;;;;;5114069;28;20050;-67
2023/07/17 04:40:20;;;;;;;40.22;36.20;;;18.00;99.90;;;;;;5113764;28;20043;-67
2023/07/17 04:42:46;;;;;;;41.17;36.85;;;17.90;1.00;;;;;;5113834;28;20076;-67
2023/07/17 04:45:12;;;;;;;45.55;39.78;;;18.00;99.90;;;;;;5113423;28;20085;-67
2023/07/17 04:47:38;;;;;;;52.50;42.70;;;17.90;99.90;;;;;;5113333;28;20512;-67
2023/07/17 04:50:04;;;;;;;56.50;42.20;;;18.00;99.90;;;;;;5110768;28;20048;-66
2023/07/17 04:52:30;;;;;;;49.95;42.65;;;17.90;1.00;;;;;;5112079;28;20118;-67
2023/07/17 04:54:55;;;;;;;54.38;42.03;;;17.90;45.40;;;;;;5113468;28;20127;-67
2023/07/17 04:57:21;;;;;;;52.38;42.33;;;17.80;99.90;;;;;;5113499;28;20046;-67
2023/07/17 04:59:47;;;;;;;45.97;41.00;;;18.20;1.00;;;;;;5108712;28;20145;-67
2023/07/17 05:02:12;;;;;;;43.13;38.75;;;17.80;99.90;;;;;;5081872;28;20040;-67
2023/07/17 05:04:38;;;;;;;42.75;38.53;;;17.60;99.90;;;;;;5112718;28;20031;-67
2023/07/17 05:07:03;;;;;;;46.53;39.60;;;17.60;99.90;;;;;;5110340;28;20088;-67
2023/07/17 05:09:29;;;;;;;42.50;38.35;;;17.70;99.90;;;;;;5111707;28;20043;-67
2023/07/17 05:11:55;;;;;;;44.90;37.53;;;17.70;98.70;;;;;;5112286;28;20040;-67
2023/07/17 05:14:21;;;;;;;43.05;38.08;;;17.70;1.00;;;;;;5112341;28;20046;-67
2023/07/17 05:16:46;;;;;;;44.53;39.88;;;17.70;99.90;;;;;;5110886;28;20071;-67
2023/07/17 05:19:12;;;;;;;44.45;39.72;;;17.70;99.90;;;;;;5112321;28;20040;-67
2023/07/17 05:21:37;;;;;;;42.65;38.15;;;17.80;99.90;;;;;;5112308;28;20040;-67
2023/07/17 05:24:03;;;;;;;41.85;37.65;;;17.90;99.90;;;;;;5110461;28;20027;-67
2023/07/17 05:26:28;;;;;;;41.20;36.92;;;18.10;5.60;;;;;;5111793;28;20120;-67
2023/07/17 05:28:54;;;;;;;41.53;37.28;;;18.20;1.00;;;;;;5113211;27;20493;-67
2023/07/17 05:31:21;;;;;;;41.78;37.60;;;18.30;99.90;;;;;;5112454;28;20047;-67
2023/07/17 05:33:46;;;;;;;38.58;34.67;;;18.20;1.00;;;;;;5112269;28;20046;-69
2023/07/17 05:36:12;;;;;;;38.50;34.63;;;18.20;99.90;;;;;;5100391;28;20493;-66
2023/07/17 05:38:37;;;;;;;38.58;34.63;;;18.20;1.00;;;;;;5112293;28;20114;-67
2023/07/17 05:41:03;;;;;;;38.67;34.95;;;18.30;99.90;;;;;;5092100;28;20116;-67
2023/07/17 05:43:32;;;;;;;40.17;36.15;;;18.30;99.90;;;;;;5099088;28;20067;-67
2023/07/17 05:45:58;;;;;;;38.80;35.00;;;18.20;99.90;;;;;;5095275;28;20036;-67
2023/07/17 05:48:24;;;;;;;39.72;35.70;;;18.40;68.90;;;;;;5112222;28;20047;-67
2023/07/17 05:50:50;;;;;;;39.25;35.15;;;18.20;5.90;;;;;;5089738;28;20080;-67
2023/07/17 05:53:15;;;;;;;36.92;33.20;;;18.30;1.00;;;;;;5112562;28;20404;-67
2023/07/17 05:55:41;;;;;;;35.25;31.52;;;18.30;1.00;;;;;;5091924;27;20043;-68
2023/07/17 05:58:07;;;;;;;33.65;30.08;;;18.20;99.90;;;;;;5104184;27;20039;-67
2023/07/17 06:00:33;;;;;;;33.47;30.20;;;18.30;99.90;;;;;;5090491;28;20076;-67
2023/07/17 06:02:58;;;;;;;33.78;30.33;;;18.40;99.90;;;;;;5114507;27;20073;-67
2023/07/17 06:05:24;;;;;;;31.38;28.40;;;18.50;99.90;;;;;;5112456;28;20096;-68
2023/07/17 06:07:49;;;;;;;30.88;27.67;;;18.70;68.50;;;;;;5111661;28;20035;-68
2023/07/17 06:10:15;;;;;;;31.73;28.52;;;18.70;1.00;;;;;;5109814;28;20035;-69
2023/07/17 06:12:42;;;;;;;28.23;25.60;;;18.80;99.90;;;;;;5111136;27;20035;-69
2023/07/17 06:15:09;;;;;;;32.42;29.13;;;18.90;99.90;;;;;;5098115;28;20051;-69
2023/07/17 06:17:35;;;;;;;33.88;30.58;;;18.80;96.40;;;;;;5105454;27;20043;-67
2023/07/17 06:20:04;;;;;;;33.45;29.73;;;18.80;6.50;;;;;;5089779;28;20088;-72
2023/07/17 06:22:29;;;;;;;34.53;31.15;;;18.90;1.00;;;;;;5091654;27;20503;-68
2023/07/17 06:24:55;;;;;;;34.70;31.15;;;18.80;1.00;;;;;;5103681;28;20046;-69
2023/07/17 06:27:21;;;;;;;34.45;30.77;;;18.90;1.00;;;;;;5109410;27;20073;-68
2023/07/17 06:29:46;;;;;;;33.92;30.30;;;19.00;1.00;;;;;;5110652;28;20035;-69
2023/07/17 06:32:12;;;;;;;34.80;31.40;;;19.00;1.00;;;;;;5108051;27;20035;-69
2023/07/17 06:34:37;;;;;;;37.17;33.58;;;19.10;1.00;;;;;;5098918;28;20034;-69
2023/07/17 06:37:03;;;;;;;35.75;32.13;;;19.10;1.00;;;;;;5108020;27;20059;-68
2023/07/17 06:39:29;;;;;;;35.30;31.52;;;19.20;1.00;;;;;;5107490;27;20048;-68
2023/07/17 06:41:56;;;;;;;32.90;29.70;;;19.30;1.00;;;;;;5109232;28;20043;-68
2023/07/17 06:44:21;;;;;;;35.72;32.03;;;19.30;1.00;;;;;;5092050;28;20044;-68
2023/07/17 06:46:47;;;;;;;36.42;32.55;;;19.30;1.00;;;;;;5106240;28;20047;-69
2023/07/17 06:49:13;;;;;;;36.30;32.47;;;19.30;1.00;;;;;;5100577;27;20077;-69
2023/07/17 06:51:38;;;;;;;36.08;32.40;;;19.40;1.00;;;;;;5108510;28;20069;-69
2023/07/17 06:54:04;;;;;;;33.58;30.17;;;19.50;1.00;;;;;;5104547;27;20040;-69
2023/07/17 06:56:29;;;;;;;32.22;28.90;;;19.60;1.00;;;;;;5107073;28;20063;-69
2023/07/17 06:58:55;;;;;;;34.65;30.95;;;19.70;1.00;;;;;;5102189;28;20071;-68
2023/07/17 07:01:20;;;;;;;36.95;32.08;;;19.60;99.90;;;;;;5109484;27;20054;-68
2023/07/17 07:03:46;;;;;;;30.70;27.42;;;19.70;99.90;;;;;;5108341;28;20043;-68
2023/07/17 07:06:11;;;;;;;30.63;27.85;;;19.60;99.90;;;;;;5102661;28;20040;-68
2023/07/17 07:08:37;;;;;;;28.98;24.75;;;19.70;99.90;;;;;;5107086;28;20370;-68
2023/07/17 07:11:03;;;;;;;30.30;27.17;;;19.60;99.90;;;;;;5094843;27;20493;-68
2023/07/17 07:13:29;;;;;;;33.00;29.10;;;19.70;99.90;;;;;;5096053;28;20085;-68
2023/07/17 07:15:55;;;;;;;29.60;26.40;;;19.80;99.90;;;;;;5109023;28;20582;-68
2023/07/17 07:18:21;;;;;;;26.40;23.83;;;19.80;99.90;;;;;;5115615;27;20039;-68
2023/07/17 07:20:49;;;;;;;23.90;21.60;;;20.30;62.40;;;;;;5107377;28;20101;-68
2023/07/17 07:23:14;;;;;;;39.38;21.08;;;20.00;1.00;;;;;;5108129;28;20042;-69
2023/07/17 07:25:41;;;;;;;26.45;24.05;;;20.10;1.00;;;;;;5105083;28;20036;-68
2023/07/17 07:28:06;;;;;;;29.98;27.05;;;20.20;1.00;;;;;;5108427;28;20088;-68
2023/07/17 07:30:32;;;;;;;25.65;23.27;;;20.40;1.00;;;;;;5097029;28;20044;-68
2023/07/17 07:32:58;;;;;;;27.88;25.20;;;20.40;1.00;;;;;;5102896;28;20059;-68
2023/07/17 07:35:23;;;;;;;25.10;22.63;;;20.40;1.00;;;;;;5110941;28;20111;-68
2023/07/17 07:37:49;;;;;;;25.25;22.75;;;20.40;99.90;;;;;;5106921;27;20036;-69
2023/07/17 07:40:15;;;;;;;24.80;22.25;;;20.40;99.90;;;;;;5109207;28;20043;-68
2023/07/17 07:42:44;;;;;;;22.17;20.17;;;20.50;99.90;;;;;;5104232;28;20396;-68
2023/07/17 07:45:11;;;;;;;22.20;19.88;;;20.70;99.90;;;;;;5106636;28;20666;-68
2023/07/17 07:47:37;;;;;;;26.10;23.52;;;20.80;99.90;;;;;;5107719;28;20028;-68
2023/07/17 07:50:03;;;;;;;23.13;20.75;;;20.80;99.90;;;;;;5108885;28;20046;-68
2023/07/17 07:52:29;;;;;;;28.92;25.85;;;20.50;99.90;;;;;;5106873;27;20047;-68
2023/07/17 07:54:55;;;;;;;27.27;24.52;;;20.50;99.90;;;;;;5106100;28;20047;-69
2023/07/17 07:57:20;;;;;;;26.23;23.73;;;20.60;99.90;;;;;;5101405;28;20048;-69
2023/07/17 07:59:46;;;;;;;23.75;21.10;;;21.00;99.90;;;;;;5104442;28;20077;-69
2023/07/17 08:02:12;;;;;;;23.73;21.33;;;21.10;99.90;;;;;;5101348;28;20118;-69
2023/07/17 08:04:38;;;;;;;24.08;21.77;;;21.00;99.90;;;;;;5106744;28;20397;-69
2023/07/17 08:07:04;;;;;;;22.70;20.35;;;21.20;99.90;;;;;;5107039;28;20035;-69
2023/07/17 08:09:30;;;;;;;24.63;20.20;;;21.30;99.90;;;;;;5106045;28;20036;-68
2023/07/17 08:11:56;;;;;;;22.95;20.58;;;21.30;99.90;;;;;;5104477;28;20039;-69
2023/07/17 08:14:22;;;;;;;22.73;19.70;;;21.40;99.90;;;;;;5103986;28;20032;-69
2023/07/17 08:16:48;;;;;;;23.20;20.90;;;21.40;99.90;;;;;;5105454;28;20045;-69
2023/07/17 08:19:14;;;;;;;23.98;21.27;;;21.60;99.90;;;;;;5086557;28;20409;-69
2023/07/17 08:21:39;;;;;;;25.77;23.38;;;21.60;99.90;;;;;;5102373;28;20035;-69
2023/07/17 08:24:05;;;;;;;25.33;22.65;;;21.60;99.90;;;;;;5107325;28;20085;-68
2023/07/17 08:26:31;;;;;;;27.20;23.20;;;21.70;99.90;;;;;;5106689;28;20028;-68
2023/07/17 08:28:57;;;;;;;28.55;22.50;;;21.80;99.90;;;;;;5094537;28;20627;-68
2023/07/17 08:31:23;;;;;;;25.02;20.15;;;21.80;99.90;;;;;;5092685;28;20431;-68
2023/07/17 08:33:48;;;;;;;22.08;19.77;;;21.70;99.90;;;;;;5102999;28;20035;-69
2023/07/17 08:36:14;;;;;;;21.75;19.48;;;21.60;99.90;;;;;;5103200;28;20035;-69
2023/07/17 08:38:39;;;;;;;21.42;19.42;;;21.70;99.90;;;;;;5092768;28;20036;-69
2023/07/17 08:41:07;;;;;;;22.70;20.40;;;21.50;99.90;;;;;;5109145;28;20062;-69
2023/07/17 08:43:34;;;;;;;21.05;18.92;;;21.60;99.90;;;;;;5106674;28;20038;-69
2023/07/17 08:46:00;;;;;;;17.23;15.07;;;21.80;99.90;;;;;;5107694;28;20043;-69
2023/07/17 08:48:26;;;;;;;22.23;17.63;;;21.90;99.90;;;;;;5103246;28;20114;-69
2023/07/17 08:50:52;;;;;;;21.67;19.20;;;21.80;99.90;;;;;;5096600;28;20032;-69
2023/07/17 08:53:19;;;;;;;18.63;16.63;;;22.10;99.90;;;;;;5108347;28;20032;-69
2023/07/17 08:55:46;;;;;;;19.92;17.90;;;21.80;99.90;;;;;;5108666;28;20032;-70
2023/07/17 08:58:12;;;;;;;17.92;15.55;;;22.10;99.90;;;;;;5107761;28;20126;-69
2023/07/17 09:00:39;;;;;;;19.73;16.73;;;22.20;99.90;;;;;;5106837;28;20142;-69
2023/07/17 09:03:04;;;;;;;32.10;18.77;;;22.30;99.90;;;;;;5102963;28;20830;-69
2023/07/17 09:05:30;;;;;;;18.45;14.90;;;22.60;99.90;;;;;;5101642;28;20028;-69
2023/07/17 09:07:55;;;;;;;19.63;16.77;;;22.70;99.90;;;;;;5107341;28;20526;-70
2023/07/17 09:10:23;;;;;;;18.63;14.30;;;22.80;99.90;;;;;;5112007;28;20039;-70
2023/07/17 09:12:55;;;;;;;20.45;16.17;;;22.80;93.30;;;;;;5112228;28;20051;-69
2023/07/17 09:15:22;;;;;;;17.73;15.82;;;23.00;90.40;;;;;;5109203;27;20039;-70
2023/07/17 09:17:47;;;;;;;17.25;15.43;;;23.00;90.10;;;;;;5084040;28;20126;-70
2023/07/17 09:20:16;;;;;;;14.38;10.60;;;23.00;85.10;;;;;;5109899;27;20458;-70
2023/07/17 09:22:42;;;;;;;17.60;13.38;;;23.30;59.50;;;;;;5108668;28;20493;-70
2023/07/17 09:25:09;;;;;;;14.02;11.85;;;23.20;39.20;;;;;;5111872;28;20036;-70
2023/07/17 09:27:46;;;;;;;21.63;19.50;;;23.10;25.50;;;;;;5101631;27;20439;-70
2023/07/17 09:30:16;;;;;;;22.35;20.08;;;23.10;25.10;;;;;;5110559;28;20036;-70
2023/07/17 09:32:44;;;;;;;22.67;20.52;;;23.00;25.30;;;;;;5109762;28;20031;-70
2023/07/17 09:35:13;;;;;;;24.27;21.65;;;23.30;31.20;;;;;;5083315;28;20059;-70
2023/07/17 09:37:43;;;;;;;21.63;18.95;;;23.30;31.10;;;;;;5102859;28;20035;-70
2023/07/17 09:40:13;;;;;;;22.42;20.33;;;23.30;20.90;;;;;;5086403;27;20097;-74
2023/07/17 09:42:45;;;;;;;27.35;23.60;;;23.30;15.80;;;;;;5097463;28;20043;-68
2023/07/17 09:45:11;;;;;;;42.28;38.60;;;23.20;11.60;;;;;;5104979;28;20071;-69
2023/07/17 09:47:38;;;;;;;55.67;50.72;;;23.30;10.20;;;;;;5097358;28;20040;-72
2023/07/17 09:50:05;;;;;;;55.05;50.28;;;23.40;11.00;;;;;;5091795;28;20122;-69
2023/07/17 09:52:31;;;;;;;50.50;46.10;;;23.40;14.10;;;;;;5102883;27;20051;-68
2023/07/17 09:55:01;;;;;;;61.22;56.15;;;23.50;4.30;;;;;;5105791;28;20039;-68
2023/07/17 09:57:28;;;;;;;52.90;48.70;;;23.60;6.30;;;;;;5104112;28;20576;-68
2023/07/17 10:00:00;;;;;;;41.13;37.83;;;23.70;8.40;;;;;;5103038;28;20592;-68
2023/07/17 10:02:35;;;;;;;50.85;46.72;;;23.80;1.00;;;;;;5098938;28;20058;-68
2023/07/17 10:05:05;;;;;;;73.88;67.10;;;23.70;1.00;;;;;;5110441;27;20039;-68
2023/07/17 10:07:36;;;;;;;43.58;39.97;;;23.70;1.00;;;;;;5099627;28;20032;-68
2023/07/17 10:10:03;;;;;;;31.42;28.85;;;23.80;1.00;;;;;;5107279;27;20047;-68
2023/07/17 10:12:29;;;;;;;50.42;46.55;;;23.70;1.00;;;;;;5097394;28;20859;-70
2023/07/17 10:14:57;;;;;;;46.30;42.47;;;23.50;1.00;;;;;;5105572;28;20051;-67
2023/07/17 10:17:34;;;;;;;72.03;66.70;;;23.30;1.00;;;;;;5108071;28;20043;-68
2023/07/17 10:20:03;;;;;;;76.13;70.53;;;23.20;1.00;;;;;;5107433;28;20668;-70
2023/07/17 10:22:46;;;;;;;98.65;91.43;;;23.40;1.00;;;;;;5107827;27;20088;-71
2023/07/17 10:25:17;;;;;;;101.28;94.00;;;23.10;1.00;;;;;;5111348;27;20074;-71
2023/07/17 10:27:50;;;;;;;81.72;75.70;;;23.10;1.00;;;;;;5102500;27;20476;-71
2023/07/17 10:30:47;;;;;;;62.20;57.42;;;23.00;1.00;;;;;;5108800;28;20059;-71
2023/07/17 10:33:15;;;;;;;74.97;69.45;;;23.00;1.00;;;;;;5094434;27;20108;-71
2023/07/17 10:35:50;;;;;;;88.07;81.68;;;23.00;1.00;;;;;;5103900;28;20036;-71
2023/07/17 10:38:18;;;;;;;93.10;86.35;;;22.90;1.00;;;;;;5095753;28;20551;-71
2023/07/17 10:40:44;;;;;;;58.40;53.97;;;22.90;1.00;;;;;;5103119;28;20038;-71
2023/07/17 10:43:18;;;;;;;74.63;69.13;;;23.00;1.00;;;;;;5116974;27;20118;-71
2023/07/17 10:45:46;;;;;;;88.28;81.70;;;23.10;1.00;;;;;;5091444;28;20280;-72
2023/07/17 10:48:12;;;;;;;51.13;47.20;;;23.20;1.00;;;;;;5107833;27;20043;-71
2023/07/17 10:50:45;;;;;;;51.35;47.28;;;23.30;1.00;;;;;;5091118;27;20042;-70
2023/07/17 10:53:11;;;;;;;30.30;27.80;;;23.30;1.90;;;;;;5110291;27;20038;-71
2023/07/17 10:55:37;;;;;;;25.17;23.00;;;23.40;1.00;;;;;;5109802;27;20039;-71
2023/07/17 10:58:02;;;;;;;20.80;17.65;;;23.90;1.00;;;;;;5070307;28;20144;-71
2023/07/17 11:00:28;;;;;;;43.92;40.30;;;23.40;1.00;;;;;;5103026;27;20401;-71
2023/07/17 11:02:56;;;;;;;12.55;7.10;;;23.40;1.00;;;;;;5102774;28;20032;-71
2023/07/17 11:05:23;;;;;;;13.38;8.82;;;23.50;1.00;;;;;;5102759;28;20031;-71
2023/07/17 11:07:48;;;;;;;33.47;30.60;;;23.10;1.00;;;;;;5089952;28;20046;-71
2023/07/17 11:10:14;;;;;;;13.38;6.90;;;23.20;1.00;;;;;;5092228;28;20047;-71
2023/07/17 11:12:40;;;;;;;14.40;7.53;;;23.20;1.00;;;;;;5105228;28;20051;-71
2023/07/17 11:15:20;;;;;;;14.40;6.88;;;23.20;1.00;;;;;;5102708;28;20047;-70
2023/07/17 11:17:46;;;;;;;17.92;13.75;;;23.20;1.00;;;;;;5122025;27;20057;-71
2023/07/17 11:20:12;;;;;;;11.45;6.13;;;23.20;1.00;;;;;;5107479;28;20035;-71
2023/07/17 11:22:40;;;;;;;12.10;5.70;;;23.10;1.00;;;;;;5105838;28;20572;-71
2023/07/17 11:25:10;;;;;;;12.40;6.65;;;22.90;1.00;;;;;;5106821;27;20043;-68
2023/07/17 11:27:38;;;;;;;9.00;4.30;;;23.10;1.00;;;;;;5103817;27;20130;-71
2023/07/17 11:30:28;;;;;;;11.27;3.70;;;23.00;1.00;;;;;;5068960;28;20064;-71
2023/07/17 11:32:57;;;;;;;7.28;3.78;;;22.90;1.00;;;;;;5082595;28;20071;-74
2023/07/17 11:35:24;;;;;;;10.82;3.90;;;23.00;1.00;;;;;;5109337;28;20058;-72
2023/07/17 11:37:49;;;;;;;11.10;3.75;;;23.00;1.00;;;;;;5101290;27;20421;-71
2023/07/17 11:40:15;;;;;;;9.77;4.10;;;23.00;1.00;;;;;;5096324;28;20047;-71
2023/07/17 11:42:57;;;;;;;11.48;4.10;;;23.30;1.00;;;;;;5094937;28;20481;-71
2023/07/17 11:45:27;;;;;;;12.68;4.13;;;23.00;1.00;;;;;;5075224;28;20044;-71
2023/07/17 11:47:54;;;;;;;10.15;3.55;;;22.90;1.00;;;;;;5084482;28;20035;-70
2023/07/17 11:50:25;;;;;;;11.95;4.57;;;22.90;1.00;;;;;;5105252;28;20039;-70
2023/07/17 11:53:05;;;;;;;9.55;3.85;;;22.90;1.00;;;;;;5111161;28;20045;-70
2023/07/17 11:55:38;;;;;;;12.27;3.92;;;22.90;1.00;;;;;;5104354;28;20063;-70
2023/07/17 11:58:16;;;;;;;8.30;3.63;;;23.00;1.00;;;;;;5087802;28;20057;-71
2023/07/17 12:00:43;;;;;;;11.50;3.60;;;23.00;1.00;;;;;;5107590;28;20128;-70
2023/07/17 12:03:09;;;;;;;8.13;3.53;;;22.90;1.00;;;;;;5087189;28;20522;-70
2023/07/17 12:05:35;;;;;;;8.00;3.63;;;23.10;1.00;;;;;;5106746;28;20118;-71
2023/07/17 12:08:01;;;;;;;8.88;3.28;;;22.90;1.00;;;;;;5106696;28;20031;-71
2023/07/17 12:10:27;;;;;;;9.68;4.00;;;22.90;1.00;;;;;;5109274;28;20076;-71
2023/07/17 12:12:52;;;;;;;9.23;3.83;;;22.90;1.00;;;;;;5100100;28;20039;-71
2023/07/17 12:15:18;;;;;;;10.43;3.72;;;22.90;1.00;;;;;;5107550;28;20044;-67
2023/07/17 12:17:44;;;;;;;13.13;3.92;;;22.80;1.00;;;;;;5102055;28;20043;-71
2023/07/17 12:20:10;;;;;;;9.70;3.13;;;22.80;1.00;;;;;;5104327;28;20034;-72
2023/07/17 12:22:35;;;;;;;12.05;3.88;;;22.70;1.00;;;;;;5106117;28;20073;-71
2023/07/17 12:25:01;;;;;;;13.93;3.60;;;22.70;1.00;;;;;;5095369;28;20089;-71
2023/07/17 12:27:26;;;;;;;11.30;3.85;;;22.70;1.00;;;;;;5106095;28;20035;-71
2023/07/17 12:29:53;;;;;;;11.10;3.17;;;22.70;1.00;;;;;;5105040;28;20476;-71